sensor_id;sensor_type;location;lat;lon;timestamp;temperature;humidity
43697;DHT22;29301;47.620;19.560;2023-01-20T00:00:49;2.50;99.90
43697;DHT22;29301;47.620;19.560;2023-01-20T00:03:14;2.60;99.90
43697;DHT22;29301;47.620;19.560;2023-01-20T00:05:50;2.60;99.90
43697;DHT22;29301;47.620;19.560;2023-01-20T00:08:16;2.60;99.90
43697;DHT22;29301;47.620;19.560;2023-01-20T00:10:41;2.60;99.90
43697;DHT22;29301;47.620;19.560;2023-01-20T00:13:07;2.60;99.90
43697;DHT22;29301;47.620;19.560;2023-01-20T00:15:33;2.60;99.90
43697;DHT22;29301;47.620;19.560;2023-01-20T00:17:59;2.60;99.90
43697;DHT22;29301;47.620;19.560;2023-01-20T00:20:25;2.60;99.90
43697;DHT22;29301;47.620;19.560;2023-01-20T00:22:51;2.70;99.90
43697;DHT22;29301;47.620;19.560;2023-01-20T00:25:16;2.70;99.90
43697;DHT22;29301;47.620;19.560;2023-01-20T00:27:42;2.80;99.90
43697;DHT22;29301;47.620;19.560;2023-01-20T00:30:08;2.80;99.90
43697;DHT22;29301;47.620;19.560;2023-01-20T00:32:38;2.80;99.90
43697;DHT22;29301;47.620;19.560;2023-01-20T00:35:05;2.80;99.90
43697;DHT22;29301;47.620;19.560;2023-01-20T00:37:31;2.90;99.90
43697;DHT22;29301;47.620;19.560;2023-01-20T00:39:57;2.80;99.90
43697;DHT22;29301;47.620;19.560;2023-01-20T00:42:23;2.80;99.90
43697;DHT22;29301;47.620;19.560;2023-01-20T00:44:48;2.70;99.90
43697;DHT22;29301;47.620;19.560;2023-01-20T00:47:14;2.60;99.90
43697;DHT22;29301;47.620;19.560;2023-01-20T00:49:40;2.60;99.90
43697;DHT22;29301;47.620;19.560;2023-01-20T00:52:05;2.60;99.90
43697;DHT22;29301;47.620;19.560;2023-01-20T00:54:31;2.60;99.90
43697;DHT22;29301;47.620;19.560;2023-01-20T00:56:57;2.50;99.90
43697;DHT22;29301;47.620;19.560;2023-01-20T00:59:23;2.60;99.90
43697;DHT22;29301;47.620;19.560;2023-01-20T01:01:48;2.60;99.90
43697;DHT22;29301;47.620;19.560;2023-01-20T01:04:14;2.60;99.90
43697;DHT22;29301;47.620;19.560;2023-01-20T01:06:40;2.60;99.90
43697;DHT22;29301;47.620;19.560;2023-01-20T01:09:05;2.60;99.90
43697;DHT22;29301;47.620;19.560;2023-01-20T01:11:31;2.60;99.90
43697;DHT22;29301;47.620;19.560;2023-01-20T01:13:57;2.60;99.90
43697;DHT22;29301;47.620;19.560;2023-01-20T01:16:22;2.60;99.90
43697;DHT22;29301;47.620;19.560;2023-01-20T01:18:48;2.60;99.90
43697;DHT22;29301;47.620;19.560;2023-01-20T01:21:16;2.70;99.90
43697;DHT22;29301;47.620;19.560;2023-01-20T01:23:43;2.70;99.90
43697;DHT22;29301;47.620;19.560;2023-01-20T01:26:09;2.70;99.90
43697;DHT22;29301;47.620;19.560;2023-01-20T01:28:35;2.70;99.90
43697;DHT22;29301;47.620;19.560;2023-01-20T01:31:02;2.70;99.90
43697;DHT22;29301;47.620;19.560;2023-01-20T01:33:28;2.70;99.90
43697;DHT22;29301;47.620;19.560;2023-01-20T01:35:55;2.60;99.90
43697;DHT22;29301;47.620;19.560;2023-01-20T01:38:21;2.60;99.90
43697;DHT22;29301;47.620;19.560;2023-01-20T01:40:48;2.60;99.90
43697;DHT22;29301;47.620;19.560;2023-01-20T01:43:24;2.60;99.90
43697;DHT22;29301;47.620;19.560;2023-01-20T01:45:50;2.60;99.90
43697;DHT22;29301;47.620;19.560;2023-01-20T01:48:22;2.60;99.90
43697;DHT22;29301;47.620;19.560;2023-01-20T01:50:56;2.60;99.90
43697;DHT22;29301;47.620;19.560;2023-01-20T01:53:24;2.60;99.90
43697;DHT22;29301;47.620;19.560;2023-01-20T01:55:55;2.70;99.90
43697;DHT22;29301;47.620;19.560;2023-01-20T01:58:26;2.70;99.90
43697;DHT22;29301;47.620;19.560;2023-01-20T02:00:52;2.70;99.90
43697;DHT22;29301;47.620;19.560;2023-01-20T02:03:19;2.70;99.90
43697;DHT22;29301;47.620;19.560;2023-01-20T02:05:45;2.70;99.90
43697;DHT22;29301;47.620;19.560;2023-01-20T02:08:13;2.70;99.90
43697;DHT22;29301;47.620;19.560;2023-01-20T02:10:38;2.70;99.90
43697;DHT22;29301;47.620;19.560;2023-01-20T02:13:04;2.70;99.90
43697;DHT22;29301;47.620;19.560;2023-01-20T02:15:41;2.70;99.90
43697;DHT22;29301;47.620;19.560;2023-01-20T02:18:34;2.80;99.90
43697;DHT22;29301;47.620;19.560;2023-01-20T02:26:35;2.80;99.90
43697;DHT22;29301;47.620;19.560;2023-01-20T02:37:57;2.70;99.90
43697;DHT22;29301;47.620;19.560;2023-01-20T02:40:24;2.80;99.90
43697;DHT22;29301;47.620;19.560;2023-01-20T02:43:10;2.80;99.90
43697;DHT22;29301;47.620;19.560;2023-01-20T02:48:46;2.90;99.90
43697;DHT22;29301;47.620;19.560;2023-01-20T02:51:28;2.90;99.90
43697;DHT22;29301;47.620;19.560;2023-01-20T02:54:01;2.80;99.90
43697;DHT22;29301;47.620;19.560;2023-01-20T02:56:29;2.70;99.90
43697;DHT22;29301;47.620;19.560;2023-01-20T02:59:09;2.70;99.90
43697;DHT22;29301;47.620;19.560;2023-01-20T03:02:02;2.80;99.90
43697;DHT22;29301;47.620;19.560;2023-01-20T03:04:40;2.80;99.90
43697;DHT22;29301;47.620;19.560;2023-01-20T03:07:10;2.70;99.90
43697;DHT22;29301;47.620;19.560;2023-01-20T03:09:41;2.70;99.90
43697;DHT22;29301;47.620;19.560;2023-01-20T03:12:16;2.80;99.90
43697;DHT22;29301;47.620;19.560;2023-01-20T03:14:43;2.90;99.90
43697;DHT22;29301;47.620;19.560;2023-01-20T03:17:09;3.00;99.90
43697;DHT22;29301;47.620;19.560;2023-01-20T03:19:35;3.00;99.90
43697;DHT22;29301;47.620;19.560;2023-01-20T03:22:01;3.00;99.90
43697;DHT22;29301;47.620;19.560;2023-01-20T03:24:28;3.10;99.90
43697;DHT22;29301;47.620;19.560;2023-01-20T03:26:55;3.10;99.90
43697;DHT22;29301;47.620;19.560;2023-01-20T03:29:21;3.10;99.90
43697;DHT22;29301;47.620;19.560;2023-01-20T03:31:51;3.10;99.90
43697;DHT22;29301;47.620;19.560;2023-01-20T03:34:22;3.10;99.90
43697;DHT22;29301;47.620;19.560;2023-01-20T03:36:50;3.10;99.90
43697;DHT22;29301;47.620;19.560;2023-01-20T03:39:16;3.10;99.90
43697;DHT22;29301;47.620;19.560;2023-01-20T03:42:10;3.20;99.90
43697;DHT22;29301;47.620;19.560;2023-01-20T03:58:35;3.10;99.90
43697;DHT22;29301;47.620;19.560;2023-01-20T04:01:05;3.10;99.90
43697;DHT22;29301;47.620;19.560;2023-01-20T04:03:36;3.00;99.90
43697;DHT22;29301;47.620;19.560;2023-01-20T04:06:05;3.00;99.90
43697;DHT22;29301;47.620;19.560;2023-01-20T04:08:38;3.10;99.90
43697;DHT22;29301;47.620;19.560;2023-01-20T04:11:05;3.10;99.90
43697;DHT22;29301;47.620;19.560;2023-01-20T04:13:32;3.10;99.90
43697;DHT22;29301;47.620;19.560;2023-01-20T04:15:58;3.10;99.90
43697;DHT22;29301;47.620;19.560;2023-01-20T04:18:25;3.20;99.90
43697;DHT22;29301;47.620;19.560;2023-01-20T04:20:55;3.20;99.90
43697;DHT22;29301;47.620;19.560;2023-01-20T04:23:59;3.20;99.90
43697;DHT22;29301;47.620;19.560;2023-01-20T04:26:27;3.20;99.90
43697;DHT22;29301;47.620;19.560;2023-01-20T04:28:53;3.10;99.90
43697;DHT22;29301;47.620;19.560;2023-01-20T04:31:18;3.10;99.90
43697;DHT22;29301;47.620;19.560;2023-01-20T04:33:44;3.10;99.90
43697;DHT22;29301;47.620;19.560;2023-01-20T04:36:10;3.10;99.90
43697;DHT22;29301;47.620;19.560;2023-01-20T04:38:35;3.10;99.90
43697;DHT22;29301;47.620;19.560;2023-01-20T04:41:01;3.00;99.90
43697;DHT22;29301;47.620;19.560;2023-01-20T04:43:27;3.00;99.90
43697;DHT22;29301;47.620;19.560;2023-01-20T04:45:52;3.00;99.90
43697;DHT22;29301;47.620;19.560;2023-01-20T04:48:18;3.00;99.90
43697;DHT22;29301;47.620;19.560;2023-01-20T04:50:43;3.10;99.90
43697;DHT22;29301;47.620;19.560;2023-01-20T04:53:11;3.10;99.90
43697;DHT22;29301;47.620;19.560;2023-01-20T04:55:53;3.10;99.90
43697;DHT22;29301;47.620;19.560;2023-01-20T04:58:18;3.10;99.90
43697;DHT22;29301;47.620;19.560;2023-01-20T05:00:44;3.20;99.90
43697;DHT22;29301;47.620;19.560;2023-01-20T05:03:10;3.20;99.90
43697;DHT22;29301;47.620;19.560;2023-01-20T05:05:35;3.20;99.90
43697;DHT22;29301;47.620;19.560;2023-01-20T05:08:02;3.20;99.90
43697;DHT22;29301;47.620;19.560;2023-01-20T05:10:30;3.20;99.90
43697;DHT22;29301;47.620;19.560;2023-01-20T05:12:57;3.20;99.90
43697;DHT22;29301;47.620;19.560;2023-01-20T05:15:23;3.20;99.90
43697;DHT22;29301;47.620;19.560;2023-01-20T05:17:48;3.20;99.90
43697;DHT22;29301;47.620;19.560;2023-01-20T05:20:14;3.20;99.90
43697;DHT22;29301;47.620;19.560;2023-01-20T05:22:40;3.30;99.90
43697;DHT22;29301;47.620;19.560;2023-01-20T05:25:06;3.40;99.90
43697;DHT22;29301;47.620;19.560;2023-01-20T05:27:35;3.40;99.90
43697;DHT22;29301;47.620;19.560;2023-01-20T05:30:05;3.50;99.90
43697;DHT22;29301;47.620;19.560;2023-01-20T05:32:31;3.40;99.90
43697;DHT22;29301;47.620;19.560;2023-01-20T05:34:56;3.50;99.90
43697;DHT22;29301;47.620;19.560;2023-01-20T05:37:22;3.50;99.90
43697;DHT22;29301;47.620;19.560;2023-01-20T05:39:48;3.40;99.90
43697;DHT22;29301;47.620;19.560;2023-01-20T05:42:13;3.40;99.90
43697;DHT22;29301;47.620;19.560;2023-01-20T05:44:40;3.30;99.90
43697;DHT22;29301;47.620;19.560;2023-01-20T05:47:05;3.30;99.90
43697;DHT22;29301;47.620;19.560;2023-01-20T05:49:31;3.30;99.90
43697;DHT22;29301;47.620;19.560;2023-01-20T05:51:57;3.30;99.90
43697;DHT22;29301;47.620;19.560;2023-01-20T05:54:23;3.30;99.90
43697;DHT22;29301;47.620;19.560;2023-01-20T05:56:48;3.30;99.90
43697;DHT22;29301;47.620;19.560;2023-01-20T05:59:14;3.30;99.90
43697;DHT22;29301;47.620;19.560;2023-01-20T06:01:40;3.30;99.90
43697;DHT22;29301;47.620;19.560;2023-01-20T06:04:06;3.30;99.90
43697;DHT22;29301;47.620;19.560;2023-01-20T06:06:32;3.30;99.90
43697;DHT22;29301;47.620;19.560;2023-01-20T06:08:57;3.40;99.90
43697;DHT22;29301;47.620;19.560;2023-01-20T06:11:23;3.40;99.90
43697;DHT22;29301;47.620;19.560;2023-01-20T06:13:49;3.40;99.90
43697;DHT22;29301;47.620;19.560;2023-01-20T06:16:18;3.30;99.90
43697;DHT22;29301;47.620;19.560;2023-01-20T06:18:44;3.30;99.90
43697;DHT22;29301;47.620;19.560;2023-01-20T06:21:10;3.30;99.90
43697;DHT22;29301;47.620;19.560;2023-01-20T06:23:36;3.40;99.90
43697;DHT22;29301;47.620;19.560;2023-01-20T06:26:07;3.40;99.90
43697;DHT22;29301;47.620;19.560;2023-01-20T06:28:34;3.40;99.90
43697;DHT22;29301;47.620;19.560;2023-01-20T06:31:05;3.40;99.90
43697;DHT22;29301;47.620;19.560;2023-01-20T06:33:31;3.40;99.90
43697;DHT22;29301;47.620;19.560;2023-01-20T06:35:58;3.40;99.90
43697;DHT22;29301;47.620;19.560;2023-01-20T06:38:25;3.40;99.90
43697;DHT22;29301;47.620;19.560;2023-01-20T06:40:56;3.40;99.90
43697;DHT22;29301;47.620;19.560;2023-01-20T06:43:23;3.40;99.90
43697;DHT22;29301;47.620;19.560;2023-01-20T06:45:49;3.40;99.90
43697;DHT22;29301;47.620;19.560;2023-01-20T06:48:15;3.40;99.90
43697;DHT22;29301;47.620;19.560;2023-01-20T06:50:40;3.40;99.90
43697;DHT22;29301;47.620;19.560;2023-01-20T06:53:06;3.40;99.90
43697;DHT22;29301;47.620;19.560;2023-01-20T06:55:32;3.40;99.90
43697;DHT22;29301;47.620;19.560;2023-01-20T06:57:58;3.50;99.90
43697;DHT22;29301;47.620;19.560;2023-01-20T07:00:24;3.50;99.90
43697;DHT22;29301;47.620;19.560;2023-01-20T07:02:50;3.50;99.90
43697;DHT22;29301;47.620;19.560;2023-01-20T07:05:15;3.50;99.90
43697;DHT22;29301;47.620;19.560;2023-01-20T07:07:44;3.50;99.90
43697;DHT22;29301;47.620;19.560;2023-01-20T07:10:10;3.60;99.90
43697;DHT22;29301;47.620;19.560;2023-01-20T07:12:36;3.60;99.90
43697;DHT22;29301;47.620;19.560;2023-01-20T07:15:02;3.60;99.90
43697;DHT22;29301;47.620;19.560;2023-01-20T07:17:28;3.60;99.90
43697;DHT22;29301;47.620;19.560;2023-01-20T07:19:54;3.60;99.90
43697;DHT22;29301;47.620;19.560;2023-01-20T07:22:20;3.60;99.90
43697;DHT22;29301;47.620;19.560;2023-01-20T07:24:45;3.70;99.90
43697;DHT22;29301;47.620;19.560;2023-01-20T07:27:11;3.70;99.90
43697;DHT22;29301;47.620;19.560;2023-01-20T07:29:37;3.90;99.90
43697;DHT22;29301;47.620;19.560;2023-01-20T07:32:03;4.50;99.90
43697;DHT22;29301;47.620;19.560;2023-01-20T07:34:28;5.10;99.90
43697;DHT22;29301;47.620;19.560;2023-01-20T07:36:54;5.50;99.90
43697;DHT22;29301;47.620;19.560;2023-01-20T07:39:20;5.70;99.90
43697;DHT22;29301;47.620;19.560;2023-01-20T07:41:46;6.00;99.90
43697;DHT22;29301;47.620;19.560;2023-01-20T07:44:15;5.50;99.90
43697;DHT22;29301;47.620;19.560;2023-01-20T07:46:41;4.80;99.90
43697;DHT22;29301;47.620;19.560;2023-01-20T07:49:07;4.30;99.90
43697;DHT22;29301;47.620;19.560;2023-01-20T07:51:33;4.00;99.90
43697;DHT22;29301;47.620;19.560;2023-01-20T07:53:58;4.00;99.90
43697;DHT22;29301;47.620;19.560;2023-01-20T07:56:26;3.90;99.90
43697;DHT22;29301;47.620;19.560;2023-01-20T07:58:53;3.90;99.90
43697;DHT22;29301;47.620;19.560;2023-01-20T08:01:27;4.00;99.90
43697;DHT22;29301;47.620;19.560;2023-01-20T08:03:53;4.10;99.90
43697;DHT22;29301;47.620;19.560;2023-01-20T08:06:20;4.20;99.90
43697;DHT22;29301;47.620;19.560;2023-01-20T08:08:46;4.10;99.90
43697;DHT22;29301;47.620;19.560;2023-01-20T08:11:14;4.00;99.90
43697;DHT22;29301;47.620;19.560;2023-01-20T08:13:40;4.00;99.90
43697;DHT22;29301;47.620;19.560;2023-01-20T08:16:09;4.10;99.90
43697;DHT22;29301;47.620;19.560;2023-01-20T08:18:35;4.20;99.90
43697;DHT22;29301;47.620;19.560;2023-01-20T08:21:03;4.20;99.90
43697;DHT22;29301;47.620;19.560;2023-01-20T08:23:31;4.20;99.90
43697;DHT22;29301;47.620;19.560;2023-01-20T08:25:58;4.10;99.90
43697;DHT22;29301;47.620;19.560;2023-01-20T08:28:25;4.10;99.90
43697;DHT22;29301;47.620;19.560;2023-01-20T08:30:51;4.20;99.90
43697;DHT22;29301;47.620;19.560;2023-01-20T08:33:16;4.30;99.90
43697;DHT22;29301;47.620;19.560;2023-01-20T08:35:42;4.40;99.90
43697;DHT22;29301;47.620;19.560;2023-01-20T08:38:08;4.30;99.90
43697;DHT22;29301;47.620;19.560;2023-01-20T08:40:34;4.20;99.90
43697;DHT22;29301;47.620;19.560;2023-01-20T08:43:00;4.20;99.90
43697;DHT22;29301;47.620;19.560;2023-01-20T08:45:26;4.20;99.90
43697;DHT22;29301;47.620;19.560;2023-01-20T08:47:52;4.10;99.90
43697;DHT22;29301;47.620;19.560;2023-01-20T08:50:18;4.10;99.90
43697;DHT22;29301;47.620;19.560;2023-01-20T08:52:46;4.10;99.90
43697;DHT22;29301;47.620;19.560;2023-01-20T08:55:12;4.10;99.90
43697;DHT22;29301;47.620;19.560;2023-01-20T08:57:38;4.10;99.90
43697;DHT22;29301;47.620;19.560;2023-01-20T09:00:05;4.00;99.90
43697;DHT22;29301;47.620;19.560;2023-01-20T09:02:32;4.10;99.90
43697;DHT22;29301;47.620;19.560;2023-01-20T09:04:57;4.00;99.90
43697;DHT22;29301;47.620;19.560;2023-01-20T09:07:23;4.00;99.90
43697;DHT22;29301;47.620;19.560;2023-01-20T09:09:49;4.10;99.90
43697;DHT22;29301;47.620;19.560;2023-01-20T09:12:14;4.00;99.90
43697;DHT22;29301;47.620;19.560;2023-01-20T09:14:40;4.00;99.90
43697;DHT22;29301;47.620;19.560;2023-01-20T09:17:06;4.00;99.90
43697;DHT22;29301;47.620;19.560;2023-01-20T09:19:31;4.00;99.90
43697;DHT22;29301;47.620;19.560;2023-01-20T09:21:57;4.10;99.90
43697;DHT22;29301;47.620;19.560;2023-01-20T09:24:23;4.00;99.90
43697;DHT22;29301;47.620;19.560;2023-01-20T09:26:49;4.00;99.90
43697;DHT22;29301;47.620;19.560;2023-01-20T09:29:17;4.00;99.90
43697;DHT22;29301;47.620;19.560;2023-01-20T09:31:48;4.00;99.90
43697;DHT22;29301;47.620;19.560;2023-01-20T09:34:15;4.00;99.90
43697;DHT22;29301;47.620;19.560;2023-01-20T09:36:52;4.00;99.90
43697;DHT22;29301;47.620;19.560;2023-01-20T09:39:18;4.00;99.90
43697;DHT22;29301;47.620;19.560;2023-01-20T09:42:36;4.00;99.90
43697;DHT22;29301;47.620;19.560;2023-01-20T09:45:33;4.00;99.90
43697;DHT22;29301;47.620;19.560;2023-01-20T09:50:48;4.10;99.90
43697;DHT22;29301;47.620;19.560;2023-01-20T09:56:14;4.10;99.90
43697;DHT22;29301;47.620;19.560;2023-01-20T10:01:35;4.10;99.90
43697;DHT22;29301;47.620;19.560;2023-01-20T10:07:38;4.10;99.90
43697;DHT22;29301;47.620;19.560;2023-01-20T10:09:47;4.10;99.90
43697;DHT22;29301;47.620;19.560;2023-01-20T10:14:46;4.10;99.90
43697;DHT22;29301;47.620;19.560;2023-01-20T10:17:22;4.10;99.90
43697;DHT22;29301;47.620;19.560;2023-01-20T10:25:23;4.10;99.90
43697;DHT22;29301;47.620;19.560;2023-01-20T10:27:52;4.10;99.90
43697;DHT22;29301;47.620;19.560;2023-01-20T10:30:23;4.10;99.90
43697;DHT22;29301;47.620;19.560;2023-01-20T10:33:08;4.10;99.90
43697;DHT22;29301;47.620;19.560;2023-01-20T10:35:38;4.10;99.90
43697;DHT22;29301;47.620;19.560;2023-01-20T10:43:40;4.30;99.90
43697;DHT22;29301;47.620;19.560;2023-01-20T10:51:53;4.10;99.90
43697;DHT22;29301;47.620;19.560;2023-01-20T10:54:38;4.10;99.90
43697;DHT22;29301;47.620;19.560;2023-01-20T10:57:10;4.10;99.90
43697;DHT22;29301;47.620;19.560;2023-01-20T10:59:46;4.10;99.90
43697;DHT22;29301;47.620;19.560;2023-01-20T11:02:14;4.10;99.90
43697;DHT22;29301;47.620;19.560;2023-01-20T11:04:41;4.10;99.90
43697;DHT22;29301;47.620;19.560;2023-01-20T11:07:17;4.10;99.90
43697;DHT22;29301;47.620;19.560;2023-01-20T11:09:46;4.10;99.90
43697;DHT22;29301;47.620;19.560;2023-01-20T11:12:15;4.40;99.90
43697;DHT22;29301;47.620;19.560;2023-01-20T11:14:42;4.40;99.90
43697;DHT22;29301;47.620;19.560;2023-01-20T11:17:14;4.40;99.90
43697;DHT22;29301;47.620;19.560;2023-01-20T11:19:56;4.30;99.90
43697;DHT22;29301;47.620;19.560;2023-01-20T11:22:33;4.30;99.90
43697;DHT22;29301;47.620;19.560;2023-01-20T11:25:01;4.20;99.90
43697;DHT22;29301;47.620;19.560;2023-01-20T11:27:42;4.20;99.90
43697;DHT22;29301;47.620;19.560;2023-01-20T11:30:29;4.20;99.90
43697;DHT22;29301;47.620;19.560;2023-01-20T11:35:32;4.10;99.90
43697;DHT22;29301;47.620;19.560;2023-01-20T11:38:19;4.00;99.90
43697;DHT22;29301;47.620;19.560;2023-01-20T11:40:52;4.00;99.90
43697;DHT22;29301;47.620;19.560;2023-01-20T11:43:29;4.00;99.90
43697;DHT22;29301;47.620;19.560;2023-01-20T11:46:19;4.00;99.90
43697;DHT22;29301;47.620;19.560;2023-01-20T11:48:47;4.00;99.90
43697;DHT22;29301;47.620;19.560;2023-01-20T11:51:23;4.00;99.90
43697;DHT22;29301;47.620;19.560;2023-01-20T11:53:50;4.00;99.90
43697;DHT22;29301;47.620;19.560;2023-01-20T11:56:22;4.00;99.90
43697;DHT22;29301;47.620;19.560;2023-01-20T12:01:27;4.00;99.90
43697;DHT22;29301;47.620;19.560;2023-01-20T12:06:27;3.80;99.90
43697;DHT22;29301;47.620;19.560;2023-01-20T12:09:02;3.80;99.90
43697;DHT22;29301;47.620;19.560;2023-01-20T12:11:34;3.80;99.90
43697;DHT22;29301;47.620;19.560;2023-01-20T12:14:19;3.70;99.90
43697;DHT22;29301;47.620;19.560;2023-01-20T12:20:00;3.70;99.90
43697;DHT22;29301;47.620;19.560;2023-01-20T12:22:33;3.70;99.90
43697;DHT22;29301;47.620;19.560;2023-01-20T12:28:09;3.70;99.90
43697;DHT22;29301;47.620;19.560;2023-01-20T12:30:59;3.70;99.90
43697;DHT22;29301;47.620;19.560;2023-01-20T13:15:28;3.70;99.90
43697;DHT22;29301;47.620;19.560;2023-01-20T13:20:33;3.70;99.90
43697;DHT22;29301;47.620;19.560;2023-01-20T13:23:02;3.70;99.90
43697;DHT22;29301;47.620;19.560;2023-01-20T13:25:29;3.70;99.90
43697;DHT22;29301;47.620;19.560;2023-01-20T13:27:55;3.70;99.90
43697;DHT22;29301;47.620;19.560;2023-01-20T13:33:25;3.60;99.90
43697;DHT22;29301;47.620;19.560;2023-01-20T13:35:53;3.60;99.90
43697;DHT22;29301;47.620;19.560;2023-01-20T13:38:21;3.60;99.90
43697;DHT22;29301;47.620;19.560;2023-01-20T13:40:50;3.60;99.90
43697;DHT22;29301;47.620;19.560;2023-01-20T13:48:43;3.50;99.90
43697;DHT22;29301;47.620;19.560;2023-01-20T13:59:47;3.50;99.90
43697;DHT22;29301;47.620;19.560;2023-01-20T14:02:21;3.50;99.90
43697;DHT22;29301;47.620;19.560;2023-01-20T14:04:47;3.50;99.90
43697;DHT22;29301;47.620;19.560;2023-01-20T14:07:27;3.40;99.90
43697;DHT22;29301;47.620;19.560;2023-01-20T14:09:57;3.40;99.90
43697;DHT22;29301;47.620;19.560;2023-01-20T14:12:23;3.40;99.90
43697;DHT22;29301;47.620;19.560;2023-01-20T14:14:49;3.40;99.90
43697;DHT22;29301;47.620;19.560;2023-01-20T14:17:21;3.30;99.90
43697;DHT22;29301;47.620;19.560;2023-01-20T14:19:49;3.30;99.90
43697;DHT22;29301;47.620;19.560;2023-01-20T14:22:27;3.30;99.90
43697;DHT22;29301;47.620;19.560;2023-01-20T14:24:54;3.30;99.90
43697;DHT22;29301;47.620;19.560;2023-01-20T14:27:32;3.20;99.90
43697;DHT22;29301;47.620;19.560;2023-01-20T14:30:23;3.10;99.90
43697;DHT22;29301;47.620;19.560;2023-01-20T14:32:50;3.10;99.90
43697;DHT22;29301;47.620;19.560;2023-01-20T14:37:49;3.20;99.90
43697;DHT22;29301;47.620;19.560;2023-01-20T14:40:44;3.10;99.90
43697;DHT22;29301;47.620;19.560;2023-01-20T14:43:18;3.00;99.90
43697;DHT22;29301;47.620;19.560;2023-01-20T14:45:46;2.90;99.90
43697;DHT22;29301;47.620;19.560;2023-01-20T14:48:13;2.70;99.90
43697;DHT22;29301;47.620;19.560;2023-01-20T14:50:39;2.70;99.90
43697;DHT22;29301;47.620;19.560;2023-01-20T14:53:05;2.60;99.90
43697;DHT22;29301;47.620;19.560;2023-01-20T14:55:34;2.50;99.90
43697;DHT22;29301;47.620;19.560;2023-01-20T14:58:13;2.50;99.90
43697;DHT22;29301;47.620;19.560;2023-01-20T15:00:44;2.40;99.90
43697;DHT22;29301;47.620;19.560;2023-01-20T15:05:41;2.30;99.90
43697;DHT22;29301;47.620;19.560;2023-01-20T15:08:24;2.30;99.90
43697;DHT22;29301;47.620;19.560;2023-01-20T15:13:36;2.30;99.90
43697;DHT22;29301;47.620;19.560;2023-01-20T15:16:28;2.20;99.90
43697;DHT22;29301;47.620;19.560;2023-01-20T15:26:39;2.30;99.90
43697;DHT22;29301;47.620;19.560;2023-01-20T15:31:48;2.20;99.90
43697;DHT22;29301;47.620;19.560;2023-01-20T15:34:14;2.20;99.90
43697;DHT22;29301;47.620;19.560;2023-01-20T15:36:40;2.30;99.90
43697;DHT22;29301;47.620;19.560;2023-01-20T15:39:09;2.30;99.90
43697;DHT22;29301;47.620;19.560;2023-01-20T15:41:35;2.20;99.90
43697;DHT22;29301;47.620;19.560;2023-01-20T15:44:01;2.30;99.90
43697;DHT22;29301;47.620;19.560;2023-01-20T15:46:26;2.20;99.90
43697;DHT22;29301;47.620;19.560;2023-01-20T15:48:52;2.20;99.90
43697;DHT22;29301;47.620;19.560;2023-01-20T15:51:19;2.20;99.90
43697;DHT22;29301;47.620;19.560;2023-01-20T15:53:45;2.10;99.90
43697;DHT22;29301;47.620;19.560;2023-01-20T15:56:18;2.20;99.90
43697;DHT22;29301;47.620;19.560;2023-01-20T15:58:44;2.10;99.90
43697;DHT22;29301;47.620;19.560;2023-01-20T16:01:13;2.00;99.90
43697;DHT22;29301;47.620;19.560;2023-01-20T16:03:39;2.00;99.90
43697;DHT22;29301;47.620;19.560;2023-01-20T16:06:14;2.00;99.90
43697;DHT22;29301;47.620;19.560;2023-01-20T16:08:40;1.90;99.90
43697;DHT22;29301;47.620;19.560;2023-01-20T16:11:07;1.90;99.90
43697;DHT22;29301;47.620;19.560;2023-01-20T16:13:33;1.80;99.90
43697;DHT22;29301;47.620;19.560;2023-01-20T16:16:00;1.70;99.90
43697;DHT22;29301;47.620;19.560;2023-01-20T16:18:26;1.70;99.90
43697;DHT22;29301;47.620;19.560;2023-01-20T16:20:52;1.70;99.90
43697;DHT22;29301;47.620;19.560;2023-01-20T16:23:18;1.70;99.90
43697;DHT22;29301;47.620;19.560;2023-01-20T16:25:44;1.80;99.90
43697;DHT22;29301;47.620;19.560;2023-01-20T16:28:20;1.70;99.90
43697;DHT22;29301;47.620;19.560;2023-01-20T16:30:51;1.70;99.90
43697;DHT22;29301;47.620;19.560;2023-01-20T16:33:26;1.70;99.90
43697;DHT22;29301;47.620;19.560;2023-01-20T16:35:52;1.70;99.90
43697;DHT22;29301;47.620;19.560;2023-01-20T16:38:20;1.70;99.90
43697;DHT22;29301;47.620;19.560;2023-01-20T16:43:15;1.70;99.90
43697;DHT22;29301;47.620;19.560;2023-01-20T16:45:42;1.60;99.90
43697;DHT22;29301;47.620;19.560;2023-01-20T16:48:08;1.60;99.90
43697;DHT22;29301;47.620;19.560;2023-01-20T16:50:37;1.60;99.90
43697;DHT22;29301;47.620;19.560;2023-01-20T16:53:03;1.60;99.90
43697;DHT22;29301;47.620;19.560;2023-01-20T16:55:29;1.60;99.90
43697;DHT22;29301;47.620;19.560;2023-01-20T16:57:54;1.60;99.90
43697;DHT22;29301;47.620;19.560;2023-01-20T17:00:21;1.60;99.90
43697;DHT22;29301;47.620;19.560;2023-01-20T17:02:51;1.70;99.90
43697;DHT22;29301;47.620;19.560;2023-01-20T17:05:17;1.70;99.90
43697;DHT22;29301;47.620;19.560;2023-01-20T17:07:47;1.70;99.90
43697;DHT22;29301;47.620;19.560;2023-01-20T17:10:14;1.70;99.90
43697;DHT22;29301;47.620;19.560;2023-01-20T17:12:40;1.60;99.90
43697;DHT22;29301;47.620;19.560;2023-01-20T17:15:06;1.60;99.90
43697;DHT22;29301;47.620;19.560;2023-01-20T17:17:32;1.70;99.90
43697;DHT22;29301;47.620;19.560;2023-01-20T17:19:58;1.70;99.90
43697;DHT22;29301;47.620;19.560;2023-01-20T17:22:24;1.70;99.90
43697;DHT22;29301;47.620;19.560;2023-01-20T17:24:50;1.70;99.90
43697;DHT22;29301;47.620;19.560;2023-01-20T17:27:15;1.70;99.90
43697;DHT22;29301;47.620;19.560;2023-01-20T17:29:41;1.80;99.90
43697;DHT22;29301;47.620;19.560;2023-01-20T17:32:07;1.80;99.90
43697;DHT22;29301;47.620;19.560;2023-01-20T17:34:32;1.80;99.90
43697;DHT22;29301;47.620;19.560;2023-01-20T17:36:58;1.80;99.90
43697;DHT22;29301;47.620;19.560;2023-01-20T17:39:24;1.70;99.90
43697;DHT22;29301;47.620;19.560;2023-01-20T17:41:50;1.70;99.90
43697;DHT22;29301;47.620;19.560;2023-01-20T17:44:15;1.80;99.90
43697;DHT22;29301;47.620;19.560;2023-01-20T17:46:41;1.80;99.90
43697;DHT22;29301;47.620;19.560;2023-01-20T17:49:07;1.70;99.90
43697;DHT22;29301;47.620;19.560;2023-01-20T17:51:33;1.70;99.90
43697;DHT22;29301;47.620;19.560;2023-01-20T17:53:59;1.60;99.90
43697;DHT22;29301;47.620;19.560;2023-01-20T17:56:26;1.60;99.90
43697;DHT22;29301;47.620;19.560;2023-01-20T17:58:52;1.60;99.90
43697;DHT22;29301;47.620;19.560;2023-01-20T18:03:48;1.60;99.90
43697;DHT22;29301;47.620;19.560;2023-01-20T18:06:15;1.70;99.90
43697;DHT22;29301;47.620;19.560;2023-01-20T18:08:42;1.60;99.90
43697;DHT22;29301;47.620;19.560;2023-01-20T18:11:12;1.60;99.90
43697;DHT22;29301;47.620;19.560;2023-01-20T18:13:45;1.60;99.90
43697;DHT22;29301;47.620;19.560;2023-01-20T18:16:12;1.70;99.90
43697;DHT22;29301;47.620;19.560;2023-01-20T18:18:39;1.70;99.90
43697;DHT22;29301;47.620;19.560;2023-01-20T18:23:37;1.70;99.90